Time;durP1;ratioP1;P1;durP2;ratioP2;P2;SDS_P1;SDS_P2;PMS_P1;PMS_P2;Temp;Humidity;BMP_temperature;BMP_pressure;BME280_temperature;BME280_humidity;BME280_pressure;Samples;Min_cycle;Max_cycle;Signal;HPM_P1;HPM_P2
2022/03/04 00:00:20;;;;;;;;;56.25;44.50;;;;;;;;4987595;28;11654;-88
2022/03/04 00:02:48;;;;;;;;;61.25;49.75;;;;;;;;4985098;28;12242;-89
2022/03/04 00:05:15;;;;;;;;;58.75;49.25;;;;;;;;4986113;28;11754;-90
2022/03/04 00:07:42;;;;;;;;;56.25;47.50;;;;;;;;4984429;28;11627;-90
2022/03/04 00:10:10;;;;;;;;;58.25;45.25;;;;;;;;4978443;28;11551;-90
2022/03/04 00:12:37;;;;;;;;;59.75;49.50;;;;;;;;5003367;28;11534;-90
2022/03/04 00:15:08;;;;;;;;;53.00;45.50;;;;;;;;5011401;28;12391;-89
2022/03/04 00:17:35;;;;;;;;;58.50;48.00;;;;;;;;5010278;28;11593;-88
2022/03/04 00:20:03;;;;;;;;;49.50;41.25;;;;;;;;5007496;28;11717;-88
2022/03/04 00:22:30;;;;;;;;;44.75;41.00;;;;;;;;4988464;28;11625;-91
2022/03/04 00:24:58;;;;;;;;;45.75;40.75;;;;;;;;5009167;28;11658;-87
2022/03/04 00:27:25;;;;;;;;;46.25;41.75;;;;;;;;5010127;28;11719;-88
2022/03/04 00:29:53;;;;;;;;;57.00;43.75;;;;;;;;5007166;28;11625;-89
2022/03/04 00:32:22;;;;;;;;;51.75;43.50;;;;;;;;5006807;28;11582;-87
2022/03/04 00:34:49;;;;;;;;;71.25;57.00;;;;;;;;5013274;28;12447;-90
2022/03/04 00:37:17;;;;;;;;;72.00;56.25;;;;;;;;5011813;28;11819;-90
2022/03/04 00:39:44;;;;;;;;;69.25;56.00;;;;;;;;5018483;28;11739;-89
2022/03/04 00:42:12;;;;;;;;;83.25;63.00;;;;;;;;5003181;28;11685;-88
2022/03/04 00:44:39;;;;;;;;;80.25;61.25;;;;;;;;5011464;28;11744;-90
2022/03/04 00:47:07;;;;;;;;;71.75;57.75;;;;;;;;5004912;28;11693;-89
2022/03/04 00:49:36;;;;;;;;;71.50;58.75;;;;;;;;5007742;28;11682;-89
2022/03/04 00:52:03;;;;;;;;;78.50;61.50;;;;;;;;5006123;28;11797;-93
2022/03/04 00:54:31;;;;;;;;;77.75;62.00;;;;;;;;5011133;28;11649;-92
2022/03/04 00:56:58;;;;;;;;;72.75;57.75;;;;;;;;5005040;28;11661;-94
2022/03/04 00:59:25;;;;;;;;;71.00;55.75;;;;;;;;4986814;28;11810;-94
2022/03/04 01:01:53;;;;;;;;;71.25;56.00;;;;;;;;4988675;28;11623;-90
2022/03/04 01:04:20;;;;;;;;;70.75;56.25;;;;;;;;4974980;28;11694;-89
2022/03/04 01:06:49;;;;;;;;;54.75;45.00;;;;;;;;5014685;28;11671;-90
2022/03/04 01:09:17;;;;;;;;;58.00;48.00;;;;;;;;5018661;28;11679;-90
2022/03/04 01:11:44;;;;;;;;;63.25;52.50;;;;;;;;5010362;28;11782;-91
2022/03/04 01:14:11;;;;;;;;;69.75;54.50;;;;;;;;5020076;28;11776;-87
2022/03/04 01:16:39;;;;;;;;;69.25;55.00;;;;;;;;5007511;28;11670;-92
2022/03/04 01:19:06;;;;;;;;;65.50;53.75;;;;;;;;5004743;28;12465;-91
2022/03/04 01:21:36;;;;;;;;;67.50;53.25;;;;;;;;5003234;28;11688;-93
2022/03/04 01:24:05;;;;;;;;;68.75;51.25;;;;;;;;5010326;28;11658;-91
2022/03/04 01:26:32;;;;;;;;;65.25;50.50;;;;;;;;5024023;28;11665;-91
2022/03/04 01:28:59;;;;;;;;;65.25;51.25;;;;;;;;5011698;28;11616;-92
2022/03/04 01:31:27;;;;;;;;;65.00;53.75;;;;;;;;5004637;28;11589;-90
2022/03/04 01:33:54;;;;;;;;;57.50;49.00;;;;;;;;5004785;28;11666;-91
2022/03/04 01:36:21;;;;;;;;;67.00;53.25;;;;;;;;5015293;28;11604;-91
2022/03/04 01:38:49;;;;;;;;;64.25;48.75;;;;;;;;5015852;28;11599;-84
2022/03/04 01:41:18;;;;;;;;;54.50;44.75;;;;;;;;5005422;28;11635;-92
2022/03/04 01:43:45;;;;;;;;;62.25;51.75;;;;;;;;5003965;28;11757;-92
2022/03/04 01:46:15;;;;;;;;;65.00;53.50;;;;;;;;4987169;28;11763;-86
2022/03/04 01:48:44;;;;;;;;;57.50;47.75;;;;;;;;5010661;28;11663;-91
2022/03/04 01:51:13;;;;;;;;;63.75;49.75;;;;;;;;5003339;28;11621;-90
2022/03/04 01:53:41;;;;;;;;;65.50;51.75;;;;;;;;5010111;28;11623;-90
2022/03/04 01:56:08;;;;;;;;;70.50;55.00;;;;;;;;5005976;28;11659;-88
2022/03/04 01:58:37;;;;;;;;;66.00;54.25;;;;;;;;5012484;28;11663;-82
2022/03/04 02:01:05;;;;;;;;;63.00;52.50;;;;;;;;4985071;28;11757;-86
2022/03/04 02:03:33;;;;;;;;;75.25;59.75;;;;;;;;5000898;28;11696;-88
2022/03/04 02:06:00;;;;;;;;;66.75;52.75;;;;;;;;4985984;28;11671;-89
2022/03/04 02:08:28;;;;;;;;;65.75;53.75;;;;;;;;5003357;28;11701;-84
2022/03/04 02:10:55;;;;;;;;;66.00;53.50;;;;;;;;4990801;28;11706;-85
2022/03/04 02:13:23;;;;;;;;;62.25;52.25;;;;;;;;5011547;28;11716;-85
2022/03/04 02:15:52;;;;;;;;;58.25;48.00;;;;;;;;4986682;28;11654;-89
2022/03/04 02:18:19;;;;;;;;;61.50;51.50;;;;;;;;5000764;28;11647;-86
2022/03/04 02:20:49;;;;;;;;;67.25;55.25;;;;;;;;5004156;28;11678;-89
2022/03/04 02:23:18;;;;;;;;;59.50;49.25;;;;;;;;5001372;28;11667;-89
2022/03/04 02:25:47;;;;;;;;;61.00;50.25;;;;;;;;4993314;28;11648;-89
2022/03/04 02:28:15;;;;;;;;;65.75;52.00;;;;;;;;5008539;28;11556;-90
2022/03/04 02:30:43;;;;;;;;;60.25;50.25;;;;;;;;5008139;28;11733;-90
2022/03/04 02:33:11;;;;;;;;;64.25;50.75;;;;;;;;4993187;28;11597;-87
2022/03/04 02:35:39;;;;;;;;;69.00;53.50;;;;;;;;5013131;28;11718;-87
2022/03/04 02:38:07;;;;;;;;;61.50;49.25;;;;;;;;4997449;28;11808;-88
2022/03/04 02:40:36;;;;;;;;;61.75;50.50;;;;;;;;5015256;28;11650;-89
2022/03/04 02:43:03;;;;;;;;;65.25;53.00;;;;;;;;4987273;28;11660;-88
2022/03/04 02:45:30;;;;;;;;;59.00;48.25;;;;;;;;4986277;28;11767;-88
2022/03/04 02:47:58;;;;;;;;;63.50;52.75;;;;;;;;4999366;28;12603;-92
2022/03/04 02:50:25;;;;;;;;;61.00;51.25;;;;;;;;5002209;28;11601;-86
2022/03/04 02:52:53;;;;;;;;;56.50;48.00;;;;;;;;5009986;28;11633;-88
2022/03/04 02:55:20;;;;;;;;;62.75;52.25;;;;;;;;5011319;28;11794;-89
2022/03/04 02:57:49;;;;;;;;;66.50;50.50;;;;;;;;5001825;28;11808;-88
2022/03/04 03:00:18;;;;;;;;;74.50;59.00;;;;;;;;4993722;28;11698;-86
2022/03/04 03:02:45;;;;;;;;;70.50;54.25;;;;;;;;5003763;28;11668;-89
2022/03/04 03:05:13;;;;;;;;;68.00;52.75;;;;;;;;5004382;28;11699;-88
2022/03/04 03:07:41;;;;;;;;;76.75;58.50;;;;;;;;5009018;28;11731;-87
2022/03/04 03:10:10;;;;;;;;;66.75;53.75;;;;;;;;5003516;28;11676;-86
2022/03/04 03:12:37;;;;;;;;;70.00;53.75;;;;;;;;5003686;28;11652;-88
2022/03/04 03:15:08;;;;;;;;;64.50;53.25;;;;;;;;5010037;28;11721;-87
2022/03/04 03:17:35;;;;;;;;;75.00;58.75;;;;;;;;4985317;28;11666;-84
2022/03/04 03:20:03;;;;;;;;;74.50;57.75;;;;;;;;5008228;28;11668;-83
2022/03/04 03:22:30;;;;;;;;;76.25;60.25;;;;;;;;5017542;28;11705;-85
2022/03/04 03:24:58;;;;;;;;;70.25;57.00;;;;;;;;5002773;28;12445;-87
2022/03/04 03:27:26;;;;;;;;;68.50;55.75;;;;;;;;5004343;28;11799;-87
2022/03/04 03:29:53;;;;;;;;;76.00;56.00;;;;;;;;4998988;28;11659;-89
2022/03/04 03:32:22;;;;;;;;;72.00;57.50;;;;;;;;5008042;28;11605;-90
2022/03/04 03:34:49;;;;;;;;;66.50;53.25;;;;;;;;5008618;28;12252;-87
2022/03/04 03:37:17;;;;;;;;;75.25;56.75;;;;;;;;5014784;28;11681;-88
2022/03/04 03:39:44;;;;;;;;;69.75;55.75;;;;;;;;5007267;28;11802;-88
2022/03/04 03:42:12;;;;;;;;;71.00;56.50;;;;;;;;4990283;28;11749;-85
2022/03/04 03:44:39;;;;;;;;;66.25;53.75;;;;;;;;4996482;28;11663;-85
2022/03/04 03:47:06;;;;;;;;;69.50;51.00;;;;;;;;5004707;28;11791;-88
2022/03/04 03:49:35;;;;;;;;;76.00;59.00;;;;;;;;5002916;28;11767;-87
2022/03/04 03:52:03;;;;;;;;;75.00;60.00;;;;;;;;5003097;28;11752;-89
2022/03/04 03:54:30;;;;;;;;;75.50;59.50;;;;;;;;4984635;28;11715;-87
2022/03/04 03:56:57;;;;;;;;;72.25;57.25;;;;;;;;4977301;28;11669;-89
2022/03/04 03:59:24;;;;;;;;;75.50;58.75;;;;;;;;5008933;28;11675;-82
2022/03/04 04:01:52;;;;;;;;;66.25;54.75;;;;;;;;5006084;28;11642;-90
2022/03/04 04:04:19;;;;;;;;;77.75;60.00;;;;;;;;5012205;28;11668;-89
2022/03/04 04:06:48;;;;;;;;;72.25;60.00;;;;;;;;5012327;28;11690;-86
2022/03/04 04:09:15;;;;;;;;;73.75;59.00;;;;;;;;5011530;28;11768;-88
2022/03/04 04:11:43;;;;;;;;;72.75;60.00;;;;;;;;5015110;28;11638;-90
2022/03/04 04:14:11;;;;;;;;;69.75;55.00;;;;;;;;4992996;28;11780;-84
2022/03/04 04:16:38;;;;;;;;;65.50;54.50;;;;;;;;5011101;28;11662;-90
2022/03/04 04:19:06;;;;;;;;;67.50;54.25;;;;;;;;5009685;28;11691;-91
2022/03/04 04:21:34;;;;;;;;;69.75;57.75;;;;;;;;5004205;28;11698;-90
2022/03/04 04:24:04;;;;;;;;;70.00;56.50;;;;;;;;5002905;28;11664;-90
2022/03/04 04:26:32;;;;;;;;;72.00;58.00;;;;;;;;5005003;28;12524;-87
2022/03/04 04:28:59;;;;;;;;;71.50;58.50;;;;;;;;5002978;28;11652;-90
2022/03/04 04:31:27;;;;;;;;;77.25;62.00;;;;;;;;5006811;28;11603;-86
2022/03/04 04:33:55;;;;;;;;;71.00;58.00;;;;;;;;4999436;28;11666;-90
2022/03/04 04:36:23;;;;;;;;;75.25;61.25;;;;;;;;5006858;28;11680;-88
2022/03/04 04:38:50;;;;;;;;;70.00;54.75;;;;;;;;5017101;28;11723;-86
2022/03/04 04:41:19;;;;;;;;;71.25;57.00;;;;;;;;5008869;28;11817;-88
2022/03/04 04:43:47;;;;;;;;;76.50;58.75;;;;;;;;5010551;28;11674;-89
2022/03/04 04:46:15;;;;;;;;;71.25;56.00;;;;;;;;5014038;28;12422;-88
2022/03/04 04:48:42;;;;;;;;;69.25;55.25;;;;;;;;5016942;28;11718;-89
2022/03/04 04:51:09;;;;;;;;;63.75;50.25;;;;;;;;5023655;28;11669;-91
2022/03/04 04:53:38;;;;;;;;;72.00;57.00;;;;;;;;4999834;28;11669;-90
2022/03/04 04:56:06;;;;;;;;;73.00;57.50;;;;;;;;5015474;28;11653;-90
2022/03/04 04:58:35;;;;;;;;;73.25;55.75;;;;;;;;5002956;28;12457;-87
2022/03/04 05:01:02;;;;;;;;;64.75;52.00;;;;;;;;5005675;28;11624;-89
2022/03/04 05:03:29;;;;;;;;;68.50;55.25;;;;;;;;5006742;28;11712;-88
2022/03/04 05:05:57;;;;;;;;;73.00;57.75;;;;;;;;5002280;28;11706;-83
2022/03/04 05:08:27;;;;;;;;;70.50;55.25;;;;;;;;4992392;28;11717;-85
2022/03/04 05:10:55;;;;;;;;;70.00;54.75;;;;;;;;5008749;28;11789;-88
2022/03/04 05:13:22;;;;;;;;;70.75;57.00;;;;;;;;5003313;28;11634;-91
2022/03/04 05:15:51;;;;;;;;;63.75;53.00;;;;;;;;5001649;28;11737;-87
2022/03/04 05:18:18;;;;;;;;;63.00;51.00;;;;;;;;4990063;28;11633;-86
2022/03/04 05:20:45;;;;;;;;;70.25;55.75;;;;;;;;4982914;28;12474;-86
2022/03/04 05:23:58;;;;;;;;;68.00;55.50;;;;;;;;4983949;28;11663;-84
2022/03/04 05:26:01;;;;;;;;;70.75;54.75;;;;;;;;4984893;28;11622;-85
2022/03/04 05:28:29;;;;;;;;;69.00;52.75;;;;;;;;4976741;28;11683;-85
2022/03/04 05:30:57;;;;;;;;;73.00;58.00;;;;;;;;4991258;28;11568;-83
2022/03/04 05:33:24;;;;;;;;;71.00;56.25;;;;;;;;4985952;28;11757;-85
2022/03/04 05:35:52;;;;;;;;;66.50;53.75;;;;;;;;4996678;28;11779;-86
2022/03/04 05:38:19;;;;;;;;;62.25;50.75;;;;;;;;4993352;28;12421;-86
2022/03/04 05:40:46;;;;;;;;;77.00;60.25;;;;;;;;4989952;28;11689;-87
2022/03/04 05:43:13;;;;;;;;;68.75;55.50;;;;;;;;4986141;28;11648;-87
2022/03/04 05:45:41;;;;;;;;;69.50;54.75;;;;;;;;4984064;28;11643;-88
2022/03/04 05:48:10;;;;;;;;;76.50;59.75;;;;;;;;4982119;28;11662;-88
2022/03/04 05:50:37;;;;;;;;;74.75;57.25;;;;;;;;4977872;28;11695;-89
2022/03/04 05:53:04;;;;;;;;;72.75;57.00;;;;;;;;4980656;28;11705;-83
2022/03/04 05:55:32;;;;;;;;;76.00;58.50;;;;;;;;4978263;28;11647;-87
2022/03/04 05:57:59;;;;;;;;;78.75;63.00;;;;;;;;4979821;28;11820;-85
2022/03/04 06:00:27;;;;;;;;;74.00;58.25;;;;;;;;4976572;28;11629;-85
2022/03/04 06:02:54;;;;;;;;;77.00;59.00;;;;;;;;4980806;28;11676;-87
2022/03/04 06:05:24;;;;;;;;;70.00;56.00;;;;;;;;4980895;28;11642;-84
2022/03/04 06:07:52;;;;;;;;;71.00;56.50;;;;;;;;4978241;28;11663;-89
2022/03/04 06:10:19;;;;;;;;;71.25;56.00;;;;;;;;4981592;28;11713;-88
2022/03/04 06:12:46;;;;;;;;;69.50;56.00;;;;;;;;4978096;28;11723;-88
2022/03/04 06:15:14;;;;;;;;;68.00;53.75;;;;;;;;4997763;28;11678;-83
2022/03/04 06:17:47;;;;;;;;;72.25;56.25;;;;;;;;4996436;28;11688;-86
2022/03/04 06:20:14;;;;;;;;;69.50;55.50;;;;;;;;4999444;28;11693;-86
2022/03/04 06:22:43;;;;;;;;;64.50;52.25;;;;;;;;4997793;28;11685;-89
2022/03/04 06:25:11;;;;;;;;;65.75;54.75;;;;;;;;4983240;28;11704;-91
2022/03/04 06:27:39;;;;;;;;;70.75;56.50;;;;;;;;5003054;28;11664;-83
2022/03/04 06:30:07;;;;;;;;;73.25;59.50;;;;;;;;5003020;28;11660;-83
2022/03/04 06:32:34;;;;;;;;;80.00;59.00;;;;;;;;5001134;28;11667;-79
2022/03/04 06:35:01;;;;;;;;;69.75;56.50;;;;;;;;4999527;28;12570;-84
2022/03/04 06:37:29;;;;;;;;;74.50;59.00;;;;;;;;4981007;28;11720;-82
2022/03/04 06:39:58;;;;;;;;;67.25;56.00;;;;;;;;5002019;28;11675;-83
2022/03/04 06:42:25;;;;;;;;;78.50;58.00;;;;;;;;4998960;28;11665;-85
2022/03/04 06:44:52;;;;;;;;;74.50;60.00;;;;;;;;5000815;28;11676;-82
2022/03/04 06:47:19;;;;;;;;;70.50;56.50;;;;;;;;5005292;28;11695;-83
2022/03/04 06:49:47;;;;;;;;;78.00;59.25;;;;;;;;5006045;28;11787;-81
2022/03/04 06:52:14;;;;;;;;;72.25;53.75;;;;;;;;5000773;28;11709;-81
2022/03/04 06:54:42;;;;;;;;;72.00;58.00;;;;;;;;4984477;28;11783;-81
2022/03/04 06:57:11;;;;;;;;;64.25;54.25;;;;;;;;5002461;28;11684;-81
2022/03/04 06:59:39;;;;;;;;;74.25;58.00;;;;;;;;4983170;28;11632;-84
2022/03/04 07:02:06;;;;;;;;;64.25;50.75;;;;;;;;4983767;28;11645;-81
2022/03/04 07:04:36;;;;;;;;;62.25;51.00;;;;;;;;5000074;28;11675;-82
2022/03/04 07:07:04;;;;;;;;;64.00;52.25;;;;;;;;4984034;28;11661;-81
2022/03/04 07:09:31;;;;;;;;;66.25;54.00;;;;;;;;5005363;28;11644;-82
2022/03/04 07:12:00;;;;;;;;;65.00;52.50;;;;;;;;5001506;28;11611;-79
2022/03/04 07:14:31;;;;;;;;;72.25;58.00;;;;;;;;5000582;28;11809;-81
2022/03/04 07:16:59;;;;;;;;;70.50;57.75;;;;;;;;4982382;28;11726;-81
2022/03/04 07:19:26;;;;;;;;;72.25;56.25;;;;;;;;5002163;28;11654;-81
2022/03/04 07:21:54;;;;;;;;;71.25;57.00;;;;;;;;4981448;28;11665;-79
2022/03/04 07:24:21;;;;;;;;;62.75;53.75;;;;;;;;4995796;28;12556;-76
2022/03/04 07:26:48;;;;;;;;;66.50;55.25;;;;;;;;4979255;28;11679;-76
2022/03/04 07:29:16;;;;;;;;;75.50;61.00;;;;;;;;4993210;28;11727;-76
2022/03/04 07:31:44;;;;;;;;;62.25;51.00;;;;;;;;4989373;28;11671;-76
2022/03/04 07:34:12;;;;;;;;;40.25;36.25;;;;;;;;4998631;28;11648;-76
2022/03/04 07:36:39;;;;;;;;;69.75;56.00;;;;;;;;4999815;28;11652;-77
2022/03/04 07:39:07;;;;;;;;;67.50;54.25;;;;;;;;5000042;28;11680;-78
2022/03/04 07:41:34;;;;;;;;;64.00;52.00;;;;;;;;5000368;28;11655;-78
2022/03/04 07:44:11;;;;;;;;;77.50;61.25;;;;;;;;5000848;28;11680;-77
2022/03/04 07:46:38;;;;;;;;;77.25;61.25;;;;;;;;5000073;28;11635;-78
2022/03/04 07:49:07;;;;;;;;;71.25;57.25;;;;;;;;5000931;28;11703;-76
2022/03/04 07:51:35;;;;;;;;;70.00;56.25;;;;;;;;4998838;28;11662;-76
2022/03/04 07:54:02;;;;;;;;;73.25;58.50;;;;;;;;4991797;28;11770;-76
2022/03/04 07:56:29;;;;;;;;;73.75;58.00;;;;;;;;5003615;28;11710;-77
2022/03/04 07:58:57;;;;;;;;;53.75;47.50;;;;;;;;5013747;28;11681;-77
2022/03/04 08:01:24;;;;;;;;;66.00;54.25;;;;;;;;5001809;28;11581;-76
2022/03/04 08:03:51;;;;;;;;;63.50;52.50;;;;;;;;5011254;28;12465;-76
2022/03/04 08:06:20;;;;;;;;;71.50;57.75;;;;;;;;5007349;28;11804;-76
2022/03/04 08:08:48;;;;;;;;;77.00;58.75;;;;;;;;4998131;28;11686;-76
2022/03/04 08:11:15;;;;;;;;;74.25;58.25;;;;;;;;5005015;28;11719;-77
2022/03/04 08:13:43;;;;;;;;;73.00;58.75;;;;;;;;5000928;28;12515;-79
2022/03/04 08:16:10;;;;;;;;;71.25;58.00;;;;;;;;5004488;28;11812;-76
2022/03/04 08:18:38;;;;;;;;;76.75;61.50;;;;;;;;5004438;28;11679;-78
2022/03/04 08:21:05;;;;;;;;;73.50;58.50;;;;;;;;5017428;28;12468;-79
2022/03/04 08:23:34;;;;;;;;;72.50;59.50;;;;;;;;5010741;28;11661;-79
2022/03/04 08:26:03;;;;;;;;;68.75;54.50;;;;;;;;4983992;28;11674;-79
2022/03/04 08:28:32;;;;;;;;;79.25;62.00;;;;;;;;4985931;28;11753;-79
2022/03/04 08:30:59;;;;;;;;;80.25;60.25;;;;;;;;4999494;28;11835;-77
2022/03/04 08:33:27;;;;;;;;;69.00;55.75;;;;;;;;5004549;28;11719;-78
2022/03/04 08:35:55;;;;;;;;;62.75;51.25;;;;;;;;5024129;28;11693;-78
2022/03/04 08:38:23;;;;;;;;;75.00;58.25;;;;;;;;5015021;28;11687;-78
2022/03/04 08:40:52;;;;;;;;;72.00;56.75;;;;;;;;5014067;28;12427;-78
2022/03/04 08:43:19;;;;;;;;;70.75;56.00;;;;;;;;5007592;28;11689;-78
2022/03/04 08:45:46;;;;;;;;;69.75;56.50;;;;;;;;5011786;28;11797;-78
2022/03/04 08:48:14;;;;;;;;;71.75;57.75;;;;;;;;4999305;28;11688;-77
2022/03/04 08:50:41;;;;;;;;;63.75;53.50;;;;;;;;5000963;28;11648;-78
2022/03/04 08:53:09;;;;;;;;;71.00;56.50;;;;;;;;4985946;28;11781;-77
2022/03/04 08:55:36;;;;;;;;;70.25;55.25;;;;;;;;5003176;28;11662;-76
2022/03/04 08:58:05;;;;;;;;;69.25;57.50;;;;;;;;5003883;28;11703;-77
2022/03/04 09:00:33;;;;;;;;;64.75;53.75;;;;;;;;5008360;28;11569;-78
2022/03/04 09:03:00;;;;;;;;;67.25;55.50;;;;;;;;5011660;28;11678;-78
2022/03/04 09:05:28;;;;;;;;;69.00;55.00;;;;;;;;5007436;28;11685;-78
2022/03/04 09:07:56;;;;;;;;;68.00;53.50;;;;;;;;4995663;28;11679;-78
2022/03/04 09:10:24;;;;;;;;;56.50;45.50;;;;;;;;5023880;28;11809;-79
2022/03/04 09:12:51;;;;;;;;;61.00;52.00;;;;;;;;5023533;28;11649;-79
2022/03/04 09:15:20;;;;;;;;;62.50;51.25;;;;;;;;5012003;28;11661;-79
2022/03/04 09:17:47;;;;;;;;;66.50;52.75;;;;;;;;5023631;28;11683;-78
2022/03/04 09:20:16;;;;;;;;;60.75;51.00;;;;;;;;5022453;28;11786;-78
2022/03/04 09:22:43;;;;;;;;;64.50;51.75;;;;;;;;5023741;28;11814;-78
2022/03/04 09:25:11;;;;;;;;;57.50;48.25;;;;;;;;5022725;28;11696;-79
2022/03/04 09:27:38;;;;;;;;;61.50;51.75;;;;;;;;5023402;28;11819;-78
2022/03/04 09:30:07;;;;;;;;;60.25;48.50;;;;;;;;5023085;28;11666;-78
2022/03/04 09:32:36;;;;;;;;;59.00;47.25;;;;;;;;4988864;28;11668;-78
2022/03/04 09:35:04;;;;;;;;;57.75;48.00;;;;;;;;5022461;28;11670;-77
2022/03/04 09:37:32;;;;;;;;;61.25;50.00;;;;;;;;5022565;28;11643;-78
2022/03/04 09:39:59;;;;;;;;;67.25;53.25;;;;;;;;5023308;28;11620;-78
2022/03/04 09:42:27;;;;;;;;;61.50;46.75;;;;;;;;5004605;28;11629;-78
2022/03/04 09:44:54;;;;;;;;;63.25;51.25;;;;;;;;5009461;28;11635;-79
2022/03/04 09:47:23;;;;;;;;;62.75;50.75;;;;;;;;5003191;28;11669;-78
2022/03/04 09:49:53;;;;;;;;;67.25;54.75;;;;;;;;4989337;28;11714;-78
2022/03/04 09:52:20;;;;;;;;;61.25;50.25;;;;;;;;5023794;28;11650;-78
2022/03/04 09:54:49;;;;;;;;;60.00;48.75;;;;;;;;5008099;28;11621;-78
2022/03/04 09:57:16;;;;;;;;;62.75;50.25;;;;;;;;5003603;28;11622;-78
2022/03/04 09:59:44;;;;;;;;;63.75;52.50;;;;;;;;5017646;28;12261;-78
2022/03/04 10:02:12;;;;;;;;;67.25;52.25;;;;;;;;5002335;28;11569;-78
2022/03/04 10:04:40;;;;;;;;;57.00;47.25;;;;;;;;5010184;28;11596;-78
2022/03/04 10:07:14;;;;;;;;;67.75;54.00;;;;;;;;5015692;28;11626;-78
2022/03/04 10:09:43;;;;;;;;;62.75;51.00;;;;;;;;5023182;28;11599;-78
2022/03/04 10:12:11;;;;;;;;;58.75;47.00;;;;;;;;5003694;28;11590;-79
2022/03/04 10:14:57;;;;;;;;;59.00;47.50;;;;;;;;5022698;28;11587;-77
2022/03/04 10:17:25;;;;;;;;;63.00;49.25;;;;;;;;5021899;28;11570;-78
2022/03/04 10:19:57;;;;;;;;;55.00;45.75;;;;;;;;5022130;28;11605;-78
2022/03/04 10:22:35;;;;;;;;;54.50;46.25;;;;;;;;5017407;28;11596;-78
2022/03/04 10:25:13;;;;;;;;;62.75;47.75;;;;;;;;4984956;28;11619;-79
2022/03/04 10:27:40;;;;;;;;;59.25;51.00;;;;;;;;4999158;28;12416;-78
2022/03/04 10:30:09;;;;;;;;;68.00;54.00;;;;;;;;4979952;28;11588;-79
2022/03/04 10:32:36;;;;;;;;;61.00;49.00;;;;;;;;5004574;28;11693;-77
2022/03/04 10:35:06;;;;;;;;;55.00;47.25;;;;;;;;4999621;28;11603;-77
2022/03/04 10:37:54;;;;;;;;;62.00;49.50;;;;;;;;4995774;28;11598;-77
2022/03/04 10:40:22;;;;;;;;;60.25;46.25;;;;;;;;5008868;28;11603;-76
2022/03/04 10:42:52;;;;;;;;;57.50;47.25;;;;;;;;5001187;28;11669;-78
2022/03/04 10:45:22;;;;;;;;;61.00;48.00;;;;;;;;5001993;28;11361;-78
2022/03/04 10:47:52;;;;;;;;;60.75;47.50;;;;;;;;4984158;28;11616;-78
2022/03/04 10:50:26;;;;;;;;;53.75;42.00;;;;;;;;5002231;28;11395;-77
2022/03/04 10:52:58;;;;;;;;;50.75;43.00;;;;;;;;5009473;28;11254;-77
2022/03/04 10:55:34;;;;;;;;;41.50;37.00;;;;;;;;4998577;28;10928;-81
2022/03/04 10:58:04;;;;;;;;;54.50;44.25;;;;;;;;5019263;28;10846;-78
2022/03/04 11:00:33;;;;;;;;;58.25;48.00;;;;;;;;5019336;28;11779;-78
2022/03/04 11:03:01;;;;;;;;;50.75;43.00;;;;;;;;4998728;28;11150;-78
2022/03/04 11:05:29;;;;;;;;;54.00;45.50;;;;;;;;5000772;28;11203;-78
2022/03/04 11:07:58;;;;;;;;;53.50;46.00;;;;;;;;5016997;28;11087;-81
2022/03/04 11:10:26;;;;;;;;;47.25;41.75;;;;;;;;4976603;28;11073;-81
2022/03/04 11:12:54;;;;;;;;;50.75;42.00;;;;;;;;5000070;28;10889;-78
2022/03/04 11:15:24;;;;;;;;;50.25;42.25;;;;;;;;5002616;28;10875;-77
2022/03/04 11:17:52;;;;;;;;;51.00;41.00;;;;;;;;4987766;28;11566;-78
2022/03/04 11:20:20;;;;;;;;;56.75;44.25;;;;;;;;5011168;28;10923;-79
2022/03/04 11:22:49;;;;;;;;;51.75;42.50;;;;;;;;5020492;28;10264;-79
2022/03/04 11:25:18;;;;;;;;;51.25;41.50;;;;;;;;4999817;28;9995;-79
2022/03/04 11:27:47;;;;;;;;;50.50;39.00;;;;;;;;4997852;28;9882;-80
2022/03/04 11:30:37;;;;;;;;;55.50;45.75;;;;;;;;5002269;28;9551;-79
2022/03/04 11:33:13;;;;;;;;;52.50;43.00;;;;;;;;5003326;28;9781;-81
2022/03/04 11:35:56;;;;;;;;;58.00;46.25;;;;;;;;5020581;28;9534;-80
2022/03/04 11:39:06;;;;;;;;;55.50;45.00;;;;;;;;5014395;28;9516;-79
2022/03/04 11:42:06;;;;;;;;;48.67;42.33;;;;;;;;5002690;28;10420;-79
2022/03/04 11:44:52;;;;;;;;;52.00;44.00;;;;;;;;5004319;28;9384;-80
2022/03/04 11:47:20;;;;;;;;;52.00;43.00;;;;;;;;5011601;28;9285;-82
2022/03/04 11:49:48;;;;;;;;;55.00;44.33;;;;;;;;5013762;28;9286;-79
2022/03/04 11:52:21;;;;;;;;;55.00;44.33;;;;;;;;5002460;28;9518;-80
2022/03/04 11:55:13;;;;;;;;;52.00;43.33;;;;;;;;5003492;28;9927;-79
2022/03/04 11:57:42;;;;;;;;;58.00;47.33;;;;;;;;5003833;28;9887;-79
2022/03/04 12:00:30;;;;;;;;;56.00;45.00;;;;;;;;4994374;28;9340;-77
2022/03/04 12:03:00;;;;;;;;;55.33;43.33;;;;;;;;4993579;28;9193;-78
2022/03/04 12:05:31;;;;;;;;;50.50;42.25;;;;;;;;5011383;28;9055;-83
2022/03/04 12:08:45;;;;;;;;;55.75;45.75;;;;;;;;5112483;27;14454;-80
2022/03/04 12:11:24;;;;;;;;;55.00;45.33;;;;;;;;5088718;28;10374;-79
2022/03/04 12:14:08;;;;;;;;;52.00;41.33;;;;;;;;5082937;28;10491;-81
2022/03/04 12:16:49;;;;;;;;;55.33;44.33;;;;;;;;5094741;28;9292;-80
2022/03/04 12:19:30;;;;;;;;;54.00;44.33;;;;;;;;5082986;28;9193;-79
2022/03/04 12:21:58;;;;;;;;;59.33;47.67;;;;;;;;5097124;28;9084;-76
2022/03/04 12:24:31;;;;;;;;;51.33;40.67;;;;;;;;5099690;28;9263;-78
2022/03/04 12:26:59;;;;;;;;;54.67;45.33;;;;;;;;5090950;28;9193;-78
2022/03/04 12:29:42;;;;;;;;;61.67;47.33;;;;;;;;5094750;28;9370;-76
2022/03/04 12:32:09;;;;;;;;;50.67;43.00;;;;;;;;5092027;27;9317;-77
2022/03/04 12:34:38;;;;;;;;;55.25;45.25;;;;;;;;5095807;28;9523;-78
2022/03/04 12:37:08;;;;;;;;;52.33;41.67;;;;;;;;5090661;28;9514;-78
2022/03/04 12:39:38;;;;;;;;;57.00;45.50;;;;;;;;5087134;28;9538;-78
2022/03/04 12:42:08;;;;;;;;;56.00;43.67;;;;;;;;5097879;28;10399;-80
2022/03/04 12:44:36;;;;;;;;;58.67;46.67;;;;;;;;5095014;28;9428;-82
2022/03/04 12:47:04;;;;;;;;;56.00;46.00;;;;;;;;5087568;28;9407;-78
2022/03/04 12:49:33;;;;;;;;;52.67;44.67;;;;;;;;5083536;28;9352;-79
2022/03/04 12:52:01;;;;;;;;;54.00;43.67;;;;;;;;5092691;28;9338;-78
2022/03/04 12:54:31;;;;;;;;;60.00;46.67;;;;;;;;5096013;28;9199;-78
2022/03/04 12:57:01;;;;;;;;;52.67;43.33;;;;;;;;5090863;28;9058;-80
2022/03/04 12:59:30;;;;;;;;;51.67;43.33;;;;;;;;5081467;28;9018;-79
2022/03/04 13:01:58;;;;;;;;;55.75;46.00;;;;;;;;5088045;27;9005;-79
2022/03/04 13:04:25;;;;;;;;;52.50;43.00;;;;;;;;5094061;28;8872;-80
2022/03/04 13:06:59;;;;;;;;;60.25;45.25;;;;;;;;5096580;28;8855;-79
2022/03/04 13:09:27;;;;;;;;;53.25;43.75;;;;;;;;5115182;27;8990;-78
2022/03/04 13:11:55;;;;;;;;;48.00;40.75;;;;;;;;5116814;27;8980;-79
2022/03/04 13:14:24;;;;;;;;;51.00;42.75;;;;;;;;5099342;28;8864;-79
2022/03/04 13:16:54;;;;;;;;;46.50;40.00;;;;;;;;5103600;27;9703;-79
2022/03/04 13:19:23;;;;;;;;;54.00;44.75;;;;;;;;5106773;27;8887;-80
2022/03/04 13:21:57;;;;;;;;;51.25;43.00;;;;;;;;5106997;27;8881;-79
2022/03/04 13:24:28;;;;;;;;;49.00;40.50;;;;;;;;5099246;28;8889;-79
2022/03/04 13:26:58;;;;;;;;;47.50;41.00;;;;;;;;5102961;28;8856;-79
2022/03/04 13:29:33;;;;;;;;;46.25;39.75;;;;;;;;5095146;28;8983;-79
2022/03/04 13:32:09;;;;;;;;;55.25;43.25;;;;;;;;5101868;28;8897;-81
2022/03/04 13:34:37;;;;;;;;;52.75;42.75;;;;;;;;5103006;28;9653;-80
2022/03/04 13:37:10;;;;;;;;;49.25;41.50;;;;;;;;5094523;28;8917;-79
2022/03/04 13:39:38;;;;;;;;;48.75;41.00;;;;;;;;5105717;27;9742;-82
2022/03/04 13:42:14;;;;;;;;;50.25;42.00;;;;;;;;5115704;27;8877;-81
2022/03/04 13:45:11;;;;;;;;;45.25;38.75;;;;;;;;5106515;27;8864;-80
2022/03/04 13:47:42;;;;;;;;;50.25;42.00;;;;;;;;5059606;28;8852;-80
2022/03/04 13:50:12;;;;;;;;;47.50;39.75;;;;;;;;5099448;28;8836;-80
2022/03/04 13:52:50;;;;;;;;;51.00;42.00;;;;;;;;5101553;28;8868;-81
2022/03/04 13:55:18;;;;;;;;;49.50;41.25;;;;;;;;5101331;28;8864;-81
2022/03/04 13:57:46;;;;;;;;;51.00;42.00;;;;;;;;5091052;28;8877;-80
2022/03/04 14:00:17;;;;;;;;;50.25;42.00;;;;;;;;5100120;27;9625;-80
2022/03/04 14:02:46;;;;;;;;;51.25;41.50;;;;;;;;5101716;28;8926;-81
2022/03/04 14:05:15;;;;;;;;;51.25;42.75;;;;;;;;5096590;28;8862;-83
2022/03/04 14:07:47;;;;;;;;;48.00;39.50;;;;;;;;5093836;28;8870;-79
2022/03/04 14:10:17;;;;;;;;;47.25;40.75;;;;;;;;5104037;28;8855;-79
2022/03/04 14:12:45;;;;;;;;;50.50;42.00;;;;;;;;5101052;28;8897;-79
2022/03/04 14:15:14;;;;;;;;;48.75;42.00;;;;;;;;5092050;28;8875;-79
2022/03/04 14:17:53;;;;;;;;;55.25;44.00;;;;;;;;5103552;28;8840;-79
2022/03/04 14:20:20;;;;;;;;;50.75;42.75;;;;;;;;5097155;28;8968;-79
2022/03/04 14:22:48;;;;;;;;;46.50;40.00;;;;;;;;5100418;28;8909;-80
2022/03/04 14:25:16;;;;;;;;;42.50;36.25;;;;;;;;5072026;28;8865;-80
2022/03/04 14:27:46;;;;;;;;;40.75;36.50;;;;;;;;5077264;28;8853;-79
2022/03/04 14:30:17;;;;;;;;;42.75;36.25;;;;;;;;5095990;28;8870;-80